createdAt,value
2023-04-20T00:02:20.834Z,37.55
2023-04-20T00:04:48.797Z,37.35
2023-04-20T00:07:16.481Z,36.78
2023-04-20T00:09:44.054Z,37.80
2023-04-20T00:12:11.685Z,38.60
2023-04-20T00:14:39.655Z,44.33
2023-04-20T00:17:07.481Z,38.97
2023-04-20T00:19:35.461Z,39.42
2023-04-20T00:22:03.166Z,36.95
2023-04-20T00:24:30.756Z,39.50
2023-04-20T00:26:58.423Z,41.75
2023-04-20T00:29:26.091Z,42.67
2023-04-20T00:31:53.729Z,38.95
2023-04-20T00:34:21.478Z,36.30
2023-04-20T00:36:50.014Z,44.15
2023-04-20T00:39:17.832Z,35.80
2023-04-20T00:41:46.034Z,40.35
2023-04-20T00:44:14.889Z,36.03
2023-04-20T00:46:42.480Z,36.65
2023-04-20T00:49:10.236Z,36.13
2023-04-20T00:51:38.702Z,34.88
2023-04-20T00:54:06.248Z,37.00
2023-04-20T00:56:33.919Z,34.17
2023-04-20T00:59:02.448Z,35.42
2023-04-20T01:01:30.121Z,34.85
2023-04-20T01:03:58.233Z,39.45
2023-04-20T01:06:26.308Z,40.50
2023-04-20T01:08:53.962Z,34.33
2023-04-20T01:11:21.919Z,35.42
2023-04-20T01:13:49.785Z,40.40
2023-04-20T01:16:17.448Z,32.88
2023-04-20T01:18:45.760Z,35.25
2023-04-20T01:21:13.656Z,34.25
2023-04-20T01:23:41.216Z,34.40
2023-04-20T01:26:08.906Z,34.15
2023-04-20T01:28:36.593Z,33.67
2023-04-20T01:31:04.667Z,38.85
2023-04-20T01:33:32.334Z,32.47
2023-04-20T01:36:01.242Z,35.53
2023-04-20T01:38:28.849Z,37.50
2023-04-20T01:40:56.529Z,37.22
2023-04-20T01:43:25.361Z,34.15
2023-04-20T01:45:53.269Z,34.75
2023-04-20T01:48:21.061Z,36.22
2023-04-20T01:50:48.981Z,33.00
2023-04-20T01:53:16.533Z,32.47
2023-04-20T01:55:44.315Z,35.33
2023-04-20T01:58:12.201Z,35.88
2023-04-20T02:00:39.792Z,33.35
2023-04-20T02:03:07.977Z,32.45
2023-04-20T02:05:36.003Z,37.35
2023-04-20T02:08:03.581Z,33.80
2023-04-20T02:10:31.399Z,31.73
2023-04-20T02:12:59.330Z,35.20
2023-04-20T02:15:26.880Z,33.85
2023-04-20T02:17:55.065Z,35.72
2023-04-20T02:20:23.339Z,31.52
2023-04-20T02:22:50.867Z,33.15
2023-04-20T02:25:18.520Z,33.38
2023-04-20T02:27:46.439Z,32.63
2023-04-20T02:30:14.249Z,34.22
2023-04-20T02:32:42.463Z,30.60
2023-04-20T02:35:10.448Z,31.83
2023-04-20T03:15:15.865Z,30.02
2023-04-20T03:17:43.477Z,30.50
2023-04-20T03:20:11.062Z,28.92
2023-04-20T03:22:39.494Z,29.67
2023-04-20T03:25:07.044Z,29.80
2023-04-20T03:27:34.602Z,31.75
2023-04-20T03:30:03.202Z,30.15
2023-04-20T03:32:32.647Z,31.58
2023-04-20T03:35:03.772Z,28.83
2023-04-20T03:43:10.012Z,32.95
2023-04-20T03:45:37.666Z,29.08
2023-04-20T03:48:05.355Z,29.38
2023-04-20T03:50:33.842Z,31.95
2023-04-20T03:53:01.388Z,30.65
2023-04-20T03:55:28.926Z,36.33
2023-04-20T03:57:57.076Z,31.05
2023-04-20T04:00:24.620Z,30.45
2023-04-20T04:02:52.337Z,29.88
2023-04-20T04:05:21.061Z,30.77
2023-04-20T04:07:48.710Z,29.42
2023-04-20T04:10:16.260Z,30.85
2023-04-20T04:12:44.341Z,30.10
2023-04-20T04:15:11.980Z,34.88
2023-04-20T04:17:39.793Z,30.20
2023-04-20T04:20:07.970Z,30.33
2023-04-20T04:22:35.602Z,30.15
2023-04-20T04:25:03.117Z,29.67
2023-04-20T04:27:31.298Z,29.30
2023-04-20T04:29:58.839Z,30.35
2023-04-20T04:32:26.389Z,30.83
2023-04-20T04:34:54.446Z,32.47
2023-04-20T04:37:22.000Z,31.85
2023-04-20T04:39:49.574Z,32.58
2023-04-20T04:42:18.139Z,31.33
2023-04-20T04:44:45.710Z,34.10
2023-04-20T04:47:13.302Z,34.60
2023-04-20T04:49:41.711Z,31.20
2023-04-20T04:52:09.295Z,31.17
2023-04-20T04:54:36.923Z,35.78
2023-04-20T04:57:05.624Z,32.33
2023-04-20T04:59:33.383Z,33.05
2023-04-20T05:02:01.047Z,31.15
2023-04-20T05:04:29.802Z,30.15
2023-04-20T05:06:57.530Z,32.20
2023-04-20T05:09:25.107Z,29.20
2023-04-20T05:11:54.141Z,33.97
2023-04-20T05:14:21.743Z,33.33
2023-04-20T05:16:49.298Z,33.40
2023-04-20T05:19:17.558Z,31.55
2023-04-20T05:21:45.317Z,33.70
2023-04-20T05:24:12.880Z,32.80
2023-04-20T05:26:40.856Z,36.15
2023-04-20T05:29:08.401Z,35.38
2023-04-20T05:31:36.008Z,33.22
2023-04-20T05:34:04.096Z,32.08
2023-04-20T05:36:31.687Z,31.98
2023-04-20T05:38:59.266Z,31.58
2023-04-20T05:41:27.294Z,31.48
2023-04-20T05:43:54.935Z,31.98
2023-04-20T05:46:22.644Z,32.63
2023-04-20T05:48:50.822Z,32.88
2023-04-20T05:51:18.486Z,33.25
2023-04-20T05:53:45.952Z,31.05
2023-04-20T05:56:22.531Z,30.27
2023-04-20T05:58:50.155Z,30.98
2023-04-20T06:01:18.256Z,28.73
2023-04-20T06:03:46.084Z,30.75
2023-04-20T06:06:15.464Z,30.80
2023-04-20T06:08:44.711Z,34.30
2023-04-20T06:11:12.238Z,30.30
2023-04-20T06:13:39.722Z,31.30
2023-04-20T06:16:07.833Z,30.27
2023-04-20T06:18:35.568Z,31.35
2023-04-20T06:21:03.086Z,31.67
2023-04-20T06:23:31.881Z,31.63
2023-04-20T06:25:59.423Z,30.55
2023-04-20T06:28:27.131Z,31.52
2023-04-20T06:30:55.716Z,32.03
2023-04-20T06:33:23.342Z,30.63
2023-04-20T06:35:57.928Z,30.23
2023-04-20T06:38:25.416Z,30.80
2023-04-20T06:40:53.003Z,31.92
2023-04-20T06:43:21.726Z,30.98
2023-04-20T06:45:49.284Z,31.30
2023-04-20T06:48:30.836Z,30.02
2023-04-20T06:53:28.521Z,31.17
2023-04-20T06:55:56.358Z,32.05
2023-04-20T06:58:25.064Z,30.55
2023-04-20T07:00:52.721Z,31.10
2023-04-20T07:03:20.594Z,31.00
2023-04-20T07:05:49.711Z,30.23
2023-04-20T07:08:17.235Z,32.30
2023-04-20T07:10:44.804Z,31.65
2023-04-20T07:13:12.929Z,31.45
2023-04-20T07:15:40.538Z,30.13
2023-04-20T07:18:08.102Z,30.60
2023-04-20T07:20:36.227Z,30.73
2023-04-20T07:23:03.836Z,30.73
2023-04-20T07:25:32.262Z,32.53
2023-04-20T07:28:00.999Z,32.50
2023-04-20T07:30:28.600Z,31.23
2023-04-20T07:32:56.217Z,35.35
2023-04-20T07:35:24.665Z,31.27
2023-04-20T07:37:52.164Z,32.00
2023-04-20T07:40:19.687Z,32.03
2023-04-20T07:42:47.560Z,31.42
2023-04-20T07:45:15.211Z,30.75
2023-04-20T07:47:42.802Z,30.92
2023-04-20T07:50:11.218Z,31.70
2023-04-20T07:52:38.859Z,31.65
2023-04-20T07:55:06.478Z,31.88
2023-04-20T07:57:35.112Z,32.67
2023-04-20T08:00:02.819Z,31.75
2023-04-20T08:02:30.872Z,31.23
2023-04-20T08:04:59.178Z,30.70
2023-04-20T08:07:27.010Z,29.95
2023-04-20T08:09:54.533Z,31.98
2023-04-20T08:12:22.578Z,31.90
2023-04-20T08:14:50.108Z,32.90
2023-04-20T08:17:17.624Z,32.97
2023-04-20T08:19:46.154Z,30.48
2023-04-20T08:22:13.852Z,31.92
2023-04-20T08:24:41.410Z,30.48
2023-04-20T08:27:09.970Z,31.33
2023-04-20T08:29:37.500Z,30.58
2023-04-20T08:32:04.994Z,31.25
2023-04-20T08:34:33.420Z,30.10
2023-04-20T08:37:01.131Z,31.40
2023-04-20T08:39:28.715Z,30.83
2023-04-20T08:41:57.261Z,30.98
2023-04-20T08:44:24.870Z,31.23
2023-04-20T08:46:52.566Z,32.30
2023-04-20T08:49:20.686Z,32.03
2023-04-20T08:51:48.257Z,38.65
2023-04-20T08:54:16.084Z,32.05
2023-04-20T08:56:44.728Z,32.20
2023-04-20T08:59:12.290Z,32.50
2023-04-20T09:01:39.805Z,32.55
2023-04-20T09:04:08.232Z,31.65
2023-04-20T09:06:36.512Z,30.65
2023-04-20T09:09:04.136Z,31.73
2023-04-20T09:11:32.742Z,31.95
2023-04-20T09:14:00.561Z,36.50
2023-04-20T09:16:28.213Z,32.10
2023-04-20T09:18:56.959Z,32.53
2023-04-20T09:21:24.459Z,31.40
2023-04-20T09:23:52.009Z,32.92
2023-04-20T09:26:20.077Z,32.67
2023-04-20T09:28:47.642Z,33.13
2023-04-20T09:31:15.210Z,31.90
2023-04-20T09:33:43.153Z,32.05
2023-04-20T09:36:10.734Z,33.25
2023-04-20T09:38:38.439Z,39.25
2023-04-20T09:41:06.388Z,86.40
2023-04-20T09:43:33.900Z,97.82
2023-04-20T09:46:01.641Z,106.32
2023-04-20T09:48:32.030Z,85.38
2023-04-20T09:50:59.771Z,68.22
2023-04-20T09:53:27.344Z,75.85
2023-04-20T09:55:55.930Z,70.28
2023-04-20T09:58:23.442Z,67.80
2023-04-20T10:00:51.085Z,67.85
2023-04-20T10:03:20.058Z,54.33
2023-04-20T10:05:48.052Z,47.88
2023-04-20T10:08:15.584Z,43.70
2023-04-20T10:10:43.623Z,38.38
2023-04-20T10:13:11.192Z,36.38
2023-04-20T10:15:38.693Z,39.65
2023-04-20T10:18:06.784Z,36.90
2023-04-20T10:20:35.486Z,33.70
2023-04-20T10:23:03.048Z,35.17
2023-04-20T15:24:36.412Z,42.00
2023-04-20T15:27:05.717Z,37.10
2023-04-20T15:29:33.728Z,40.83
2023-04-20T15:32:02.373Z,37.35
2023-04-20T15:34:30.073Z,38.10
2023-04-20T15:36:57.663Z,37.33
2023-04-20T15:39:25.937Z,36.95
2023-04-20T15:41:53.462Z,38.33
2023-04-20T15:44:21.076Z,37.35
2023-04-20T15:46:48.989Z,37.15
2023-04-20T15:49:16.589Z,38.55
2023-04-20T15:51:44.447Z,45.80
2023-04-20T15:54:13.221Z,45.05
2023-04-20T15:56:40.781Z,44.80
2023-04-20T15:59:08.306Z,52.38
2023-04-20T16:01:39.621Z,44.38
2023-04-20T16:04:09.815Z,47.58
2023-04-20T16:06:38.825Z,49.67
2023-04-20T16:09:08.160Z,41.83
2023-04-20T16:11:35.766Z,39.13
2023-04-20T16:14:03.481Z,39.88
2023-04-20T16:16:31.503Z,39.72
2023-04-20T16:18:59.118Z,37.55
2023-04-20T16:21:26.780Z,41.05
2023-04-20T16:23:55.327Z,37.80
2023-04-20T16:26:22.878Z,34.72
2023-04-20T16:28:50.426Z,34.22
2023-04-20T16:31:19.004Z,34.28
2023-04-20T16:33:47.076Z,36.03
2023-04-20T16:36:14.757Z,40.67
2023-04-20T16:38:49.002Z,38.17
2023-04-20T16:41:16.766Z,32.97
2023-04-20T16:43:44.337Z,35.15
2023-04-20T16:46:12.348Z,32.60
2023-04-20T16:48:40.234Z,37.25
2023-04-20T16:51:07.786Z,31.80
2023-04-20T16:53:35.676Z,33.80
2023-04-20T16:56:03.387Z,35.63
2023-04-20T16:58:30.913Z,36.83
2023-04-20T17:00:58.825Z,36.78
2023-04-20T17:03:27.108Z,34.75
2023-04-20T17:05:54.760Z,34.90
2023-04-20T17:08:23.065Z,35.50
2023-04-20T17:10:50.681Z,31.20
2023-04-20T17:13:18.341Z,35.78
2023-04-20T17:15:46.141Z,34.63
2023-04-20T17:18:13.761Z,34.42
2023-04-20T17:20:41.355Z,36.90
2023-04-20T17:23:09.878Z,41.05
2023-04-20T17:25:37.484Z,38.47
2023-04-20T17:28:05.096Z,39.92
2023-04-20T17:30:33.801Z,39.72
2023-04-20T17:33:01.530Z,38.47
2023-04-20T17:35:29.071Z,35.33
2023-04-20T17:37:56.885Z,35.38
2023-04-20T17:40:24.533Z,33.97
2023-04-20T17:42:52.138Z,34.92
2023-04-20T17:45:23.367Z,33.67
2023-04-20T17:47:51.046Z,36.80
2023-04-20T17:50:18.549Z,43.35
2023-04-20T17:52:46.130Z,36.92
2023-04-20T17:55:13.873Z,40.08
2023-04-20T17:57:41.374Z,37.42
2023-04-20T18:00:09.213Z,42.00
2023-04-20T18:02:37.168Z,38.17
2023-04-20T18:05:06.511Z,34.53
2023-04-20T18:07:36.308Z,37.70
2023-04-20T18:10:05.749Z,38.47
2023-04-20T18:12:33.591Z,36.85
2023-04-20T18:15:01.676Z,39.67
2023-04-20T18:17:29.950Z,38.97
2023-04-20T18:19:59.240Z,40.28
2023-04-20T18:22:27.487Z,35.50
2023-04-20T18:24:55.494Z,37.55
2023-04-20T18:27:23.005Z,36.78
2023-04-20T18:29:50.630Z,37.78
2023-04-20T18:32:18.461Z,37.38
2023-04-20T18:34:45.963Z,38.40
2023-04-20T18:37:13.593Z,35.28
2023-04-20T18:39:41.370Z,43.85
2023-04-20T18:42:08.976Z,36.78
2023-04-20T18:44:36.788Z,36.65
2023-04-20T18:47:04.519Z,35.47
2023-04-20T18:49:32.252Z,42.33
2023-04-20T18:52:00.112Z,47.05
2023-04-20T18:54:27.846Z,33.63
2023-04-20T18:56:55.439Z,39.03
2023-04-20T18:59:23.103Z,41.28
2023-04-20T19:01:50.799Z,41.88
2023-04-20T19:04:18.644Z,42.17
2023-04-20T19:06:46.708Z,39.42
2023-04-20T19:09:14.358Z,40.10
2023-04-20T19:11:41.955Z,43.60
2023-04-20T19:14:09.629Z,40.67
2023-04-20T19:16:37.228Z,38.45
2023-04-20T19:19:04.910Z,37.92
2023-04-20T19:21:32.509Z,40.92
2023-04-20T19:24:00.044Z,45.83
2023-04-20T19:26:27.660Z,40.83
2023-04-20T19:28:55.240Z,51.28
2023-04-20T19:31:23.790Z,36.88
2023-04-20T19:33:51.312Z,46.67
2023-04-20T19:36:18.995Z,45.47
2023-04-20T19:38:46.808Z,42.72
2023-04-20T19:41:14.523Z,37.85
2023-04-20T19:43:42.142Z,35.72
2023-04-20T19:46:10.035Z,40.10
2023-04-20T19:48:37.727Z,41.30
2023-04-20T19:51:05.354Z,42.20
2023-04-20T19:53:32.929Z,40.40
2023-04-20T19:56:00.880Z,40.38
2023-04-20T19:58:33.800Z,35.58
2023-04-20T20:01:01.481Z,36.40
2023-04-20T20:03:29.220Z,35.13
2023-04-20T20:05:57.169Z,33.78
2023-04-20T20:08:24.738Z,39.75
2023-04-20T20:10:52.483Z,44.33
2023-04-20T20:13:20.341Z,36.38
2023-04-20T20:15:47.919Z,39.13
2023-04-20T20:18:15.655Z,32.67
2023-04-20T20:20:43.977Z,36.22
2023-04-20T20:23:12.405Z,35.35
2023-04-20T20:25:40.751Z,36.47
2023-04-20T20:28:08.574Z,38.58
2023-04-20T20:30:36.149Z,34.20
2023-04-20T20:33:03.702Z,38.47
2023-04-20T20:35:34.029Z,37.45
2023-04-20T20:38:01.668Z,39.45
2023-04-20T20:40:29.582Z,40.65
2023-04-20T20:42:57.398Z,38.38
2023-04-20T20:45:25.045Z,35.65
2023-04-20T20:47:52.835Z,38.50
2023-04-20T20:50:20.709Z,30.48
2023-04-20T20:52:48.293Z,36.38
2023-04-20T20:55:15.847Z,33.85
2023-04-20T20:57:43.736Z,36.60
2023-04-20T21:00:11.337Z,30.88
2023-04-20T21:02:39.128Z,33.60
2023-04-20T21:05:07.873Z,30.50
2023-04-20T21:07:35.324Z,33.40
2023-04-20T21:10:02.888Z,33.78
2023-04-20T21:12:30.887Z,30.63
2023-04-20T21:14:58.501Z,31.63
2023-04-20T21:17:26.163Z,29.98
2023-04-20T21:19:54.879Z,31.30
2023-04-20T21:22:22.734Z,31.02
2023-04-20T21:24:50.350Z,30.27
2023-04-20T21:27:18.852Z,32.60
2023-04-20T21:29:46.537Z,34.47
2023-04-20T21:32:14.330Z,35.50
2023-04-20T21:34:42.192Z,31.60
2023-04-20T21:37:09.805Z,35.63
2023-04-20T21:39:37.494Z,32.65
2023-04-20T21:42:05.220Z,34.70
2023-04-20T21:44:32.795Z,32.88
2023-04-20T21:47:00.477Z,35.88
2023-04-20T21:49:28.241Z,33.97
2023-04-20T21:51:55.974Z,33.95
2023-04-20T21:54:23.531Z,29.80
2023-04-20T21:56:51.315Z,34.28
2023-04-20T21:59:19.632Z,32.55
2023-04-20T22:01:47.621Z,32.33
2023-04-20T22:04:16.099Z,35.63
2023-04-20T22:06:43.926Z,36.65
2023-04-20T22:09:11.632Z,40.70
2023-04-20T22:11:39.763Z,36.30
2023-04-20T22:14:07.566Z,32.05
2023-04-20T22:16:35.674Z,31.42
2023-04-20T22:19:04.100Z,31.88
2023-04-20T22:21:33.070Z,34.80
2023-04-20T22:24:00.660Z,33.92
2023-04-20T22:26:28.504Z,34.70
2023-04-20T22:28:56.145Z,34.85
2023-04-20T22:31:24.473Z,34.80
2023-04-20T22:33:52.326Z,35.53
2023-04-20T22:36:19.969Z,37.45
2023-04-20T22:38:47.658Z,36.08
2023-04-20T22:41:17.609Z,35.63
2023-04-20T22:43:45.374Z,31.35
2023-04-20T22:46:18.283Z,32.80
2023-04-20T22:48:48.367Z,37.25
2023-04-20T22:51:17.270Z,33.28
2023-04-20T22:53:47.149Z,38.45
2023-04-20T22:56:17.794Z,32.80
2023-04-20T22:58:48.067Z,40.47
2023-04-20T23:01:16.157Z,39.67
2023-04-20T23:03:45.122Z,36.38
2023-04-20T23:06:13.218Z,40.05
2023-04-20T23:08:42.751Z,37.53
2023-04-20T23:11:10.574Z,38.03
2023-04-20T23:13:41.005Z,32.30
2023-04-20T23:16:08.671Z,34.25
2023-04-20T23:18:37.284Z,32.80
2023-04-20T23:21:05.525Z,37.97
2023-04-20T23:23:34.149Z,36.72
2023-04-20T23:26:02.472Z,33.78
2023-04-20T23:28:31.084Z,39.83
2023-04-20T23:30:58.781Z,41.72
2023-04-20T23:33:27.007Z,49.42
2023-04-20T23:35:54.822Z,89.78
2023-04-20T23:38:24.951Z,53.30
2023-04-20T23:40:52.518Z,59.72
2023-04-20T23:43:22.795Z,42.83
2023-04-20T23:45:50.629Z,40.05
2023-04-20T23:48:19.406Z,39.65
2023-04-20T23:50:49.609Z,35.92
2023-04-20T23:53:17.556Z,40.58
2023-04-20T23:55:46.184Z,42.85
2023-04-20T23:58:14.679Z,33.65
